Terminal Aerodrome Forecast
Issued by NWS Chicago, IL

Home | Current Version | Previous Version | Graphics & Text | Print | Product List | Glossary On
Versions: 1 2 3 4 5 6 7 8 9 10 11 12 13 14 15 16 17 18 19 20 21 22 23 24 25 26
594
FTUS43 KLOT 081129
TAFRFD
TAF
KRFD 081129Z 0812/0912 29011KT 6SM -SHSN SCT017 OVC021
     FM082200 32015G22KT 3SM -SN BR OVC018
     FM090100 32015G22KT 2SM -SN BR OVC015
     FM090800 32014G20KT P6SM -SHSN OVC015=

USA.gov is the U.S. government's official web portal to all federal, state and local government web resources and services.